createdAt,value
2018-09-26T00:00:04.704Z,12.10
2018-09-26T00:01:17.247Z,12.10
2018-09-26T00:02:56.317Z,12.10
2018-09-26T00:04:08.827Z,12.10
2018-09-26T00:05:12.290Z,12.10
2018-09-26T00:06:15.716Z,12.10
2018-09-26T00:07:19.112Z,12.00
2018-09-26T00:08:22.540Z,12.00
2018-09-26T00:09:26.521Z,12.00
2018-09-26T00:10:30.049Z,12.00
2018-09-26T00:11:33.492Z,12.00
2018-09-26T00:12:36.876Z,12.00
2018-09-26T00:13:40.293Z,12.00
2018-09-26T00:14:43.692Z,12.00
2018-09-26T00:15:47.345Z,12.00
2018-09-26T00:16:50.751Z,12.00
2018-09-26T00:17:54.165Z,12.00
2018-09-26T00:18:57.576Z,12.00
2018-09-26T00:20:00.977Z,12.00
2018-09-26T00:21:04.399Z,12.00
2018-09-26T00:22:07.879Z,12.00
2018-09-26T00:23:11.272Z,12.00
2018-09-26T00:24:14.663Z,12.00
2018-09-26T00:25:18.052Z,12.00
2018-09-26T00:26:21.449Z,12.00
2018-09-26T00:27:24.857Z,12.00
2018-09-26T00:28:28.252Z,12.00
2018-09-26T00:29:31.723Z,12.00
2018-09-26T00:30:35.200Z,12.00
2018-09-26T00:31:38.597Z,11.90
2018-09-26T00:32:42.009Z,11.90
2018-09-26T00:33:45.516Z,11.90
2018-09-26T00:34:48.913Z,11.90
2018-09-26T00:35:52.342Z,11.90
2018-09-26T00:36:55.750Z,11.90
2018-09-26T00:37:59.269Z,11.90
2018-09-26T00:39:02.752Z,11.90
2018-09-26T00:40:06.969Z,11.90
2018-09-26T00:41:10.368Z,11.90
2018-09-26T00:42:13.770Z,11.90
2018-09-26T00:43:17.207Z,11.90
2018-09-26T00:44:20.591Z,11.90
2018-09-26T00:45:23.996Z,11.90
2018-09-26T00:46:27.412Z,11.80
2018-09-26T00:47:30.864Z,11.80
2018-09-26T00:48:34.337Z,11.80
2018-09-26T00:49:37.740Z,11.80
2018-09-26T00:50:41.120Z,11.80
2018-09-26T00:51:44.519Z,11.80
2018-09-26T00:52:47.916Z,11.80
2018-09-26T00:53:51.328Z,11.80
2018-09-26T00:54:54.756Z,11.80
2018-09-26T00:55:58.197Z,11.80
2018-09-26T00:57:01.571Z,11.70
2018-09-26T00:58:04.967Z,11.70
2018-09-26T00:59:08.442Z,11.70
2018-09-26T01:00:11.849Z,11.60
2018-09-26T01:01:15.324Z,11.60
2018-09-26T01:02:18.741Z,11.60
2018-09-26T01:03:22.136Z,11.60
2018-09-26T01:04:25.549Z,11.60
2018-09-26T01:05:28.940Z,11.60
2018-09-26T01:06:32.371Z,11.60
2018-09-26T01:07:35.864Z,11.60
2018-09-26T01:08:39.253Z,11.60
2018-09-26T01:09:42.660Z,11.60
2018-09-26T01:10:46.176Z,11.60
2018-09-26T01:11:49.616Z,11.60
2018-09-26T01:12:53.005Z,11.60
2018-09-26T01:13:56.413Z,11.60
2018-09-26T01:14:59.823Z,11.60
2018-09-26T01:16:03.213Z,11.60
2018-09-26T01:17:06.664Z,11.60
2018-09-26T01:18:10.093Z,11.60
2018-09-26T01:19:13.477Z,11.60
2018-09-26T01:20:16.888Z,11.60
2018-09-26T01:21:20.309Z,11.60
2018-09-26T01:22:23.708Z,11.60
2018-09-26T01:23:27.096Z,11.60
2018-09-26T01:24:30.630Z,11.60
2018-09-26T01:25:34.056Z,11.60
2018-09-26T01:26:37.529Z,11.60
2018-09-26T01:27:40.922Z,11.60
2018-09-26T01:28:44.351Z,11.60
2018-09-26T01:29:47.740Z,11.60
2018-09-26T01:30:51.273Z,11.60
2018-09-26T01:31:54.648Z,11.60
2018-09-26T01:32:58.043Z,11.60
2018-09-26T01:34:01.459Z,11.60
2018-09-26T01:35:04.852Z,11.60
2018-09-26T01:36:08.292Z,11.60
2018-09-26T01:37:11.672Z,11.60
2018-09-26T01:38:15.072Z,11.60
2018-09-26T01:39:18.477Z,11.60
2018-09-26T01:40:21.910Z,11.60
2018-09-26T01:41:25.360Z,11.60
2018-09-26T01:42:28.873Z,11.60
2018-09-26T01:43:32.312Z,11.60
2018-09-26T01:44:35.718Z,11.60
2018-09-26T01:45:39.408Z,11.60
2018-09-26T01:46:42.815Z,11.60
2018-09-26T01:47:46.239Z,11.60
2018-09-26T01:48:49.716Z,11.60
2018-09-26T01:49:53.156Z,11.60
2018-09-26T01:50:56.562Z,11.60
2018-09-26T01:52:00.005Z,11.60
2018-09-26T01:53:03.388Z,11.50
2018-09-26T01:54:07.116Z,11.60
2018-09-26T01:55:10.518Z,11.60
2018-09-26T01:56:13.926Z,11.60
2018-09-26T01:57:17.419Z,11.50
2018-09-26T01:58:20.844Z,11.60
2018-09-26T01:59:24.342Z,11.50
2018-09-26T02:00:27.751Z,11.50
2018-09-26T02:01:31.158Z,11.50
2018-09-26T02:02:34.749Z,11.50
2018-09-26T02:03:38.197Z,11.50
2018-09-26T02:04:41.930Z,11.50
2018-09-26T02:05:45.348Z,11.50
2018-09-26T02:06:48.788Z,11.50
2018-09-26T02:07:52.204Z,11.50
2018-09-26T02:08:55.609Z,11.50
2018-09-26T02:09:59.057Z,11.50
2018-09-26T02:11:02.460Z,11.50
2018-09-26T02:12:06.003Z,11.50
2018-09-26T02:13:09.403Z,11.50
2018-09-26T02:14:12.803Z,11.50
2018-09-26T02:15:16.202Z,11.50
2018-09-26T02:16:19.579Z,11.50
2018-09-26T02:17:22.983Z,11.50
2018-09-26T02:18:26.401Z,11.50
2018-09-26T02:19:29.793Z,11.50
2018-09-26T02:20:33.177Z,11.50
2018-09-26T02:21:36.604Z,11.50
2018-09-26T02:22:40.102Z,11.50
2018-09-26T02:23:43.577Z,11.50
2018-09-26T02:24:46.947Z,11.50
2018-09-26T02:25:50.357Z,11.50
2018-09-26T02:26:53.751Z,11.40
2018-09-26T02:27:57.176Z,11.40
2018-09-26T02:29:00.576Z,11.40
2018-09-26T02:30:04.030Z,11.40
2018-09-26T02:31:07.622Z,11.40
2018-09-26T02:32:11.021Z,11.40
2018-09-26T02:33:14.436Z,11.40
2018-09-26T02:34:17.853Z,11.40
2018-09-26T02:35:21.257Z,11.40
2018-09-26T02:36:24.652Z,11.40
2018-09-26T02:37:28.077Z,11.40
2018-09-26T02:38:31.503Z,11.40
2018-09-26T02:39:35.109Z,11.40
2018-09-26T02:40:38.494Z,11.40
2018-09-26T02:41:41.952Z,11.40
2018-09-26T02:42:45.380Z,11.40
2018-09-26T02:43:48.804Z,11.40
2018-09-26T02:44:52.196Z,11.30
2018-09-26T02:45:55.589Z,11.30
2018-09-26T02:46:58.980Z,11.30
2018-09-26T02:48:02.385Z,11.30
2018-09-26T02:49:06.581Z,11.30
2018-09-26T02:50:10.236Z,11.30
2018-09-26T02:51:13.685Z,11.30
2018-09-26T02:52:17.080Z,11.30
2018-09-26T02:53:20.508Z,11.30
2018-09-26T02:54:23.892Z,11.30
2018-09-26T02:55:27.312Z,11.30
2018-09-26T02:56:30.769Z,11.30
2018-09-26T02:57:34.157Z,11.30
2018-09-26T02:58:37.555Z,11.30
2018-09-26T02:59:40.945Z,11.30
2018-09-26T03:00:44.366Z,11.30
2018-09-26T03:01:47.756Z,11.30
2018-09-26T03:02:51.168Z,11.30
2018-09-26T03:03:54.604Z,11.30
2018-09-26T03:04:57.999Z,11.30
2018-09-26T03:06:01.565Z,11.30
2018-09-26T03:07:04.972Z,11.30
2018-09-26T03:08:08.384Z,11.30
2018-09-26T03:09:11.925Z,11.30
2018-09-26T03:10:15.666Z,11.30
2018-09-26T03:11:19.051Z,11.20
2018-09-26T03:12:22.432Z,11.20
2018-09-26T03:13:25.840Z,11.20
2018-09-26T03:14:29.233Z,11.20
2018-09-26T03:15:32.632Z,11.20
2018-09-26T03:16:36.075Z,11.20
2018-09-26T03:17:39.496Z,11.20
2018-09-26T03:18:43.148Z,11.20
2018-09-26T03:19:46.629Z,11.30
2018-09-26T03:20:50.071Z,11.20
2018-09-26T03:21:53.456Z,11.20
2018-09-26T03:22:56.864Z,11.20
2018-09-26T03:24:00.259Z,11.20
2018-09-26T03:25:03.647Z,11.20
2018-09-26T03:26:07.253Z,11.20
2018-09-26T03:27:10.644Z,11.20
2018-09-26T03:28:14.053Z,11.20
2018-09-26T03:29:17.468Z,11.20
2018-09-26T03:30:20.875Z,11.20
2018-09-26T03:31:24.352Z,11.20
2018-09-26T03:32:27.757Z,11.20
2018-09-26T03:33:31.198Z,11.20
2018-09-26T03:34:34.592Z,11.20
2018-09-26T03:35:37.998Z,11.20
2018-09-26T03:36:41.428Z,11.20
2018-09-26T03:37:44.985Z,11.20
2018-09-26T03:38:48.497Z,11.20
2018-09-26T03:39:51.892Z,11.20
2018-09-26T03:40:55.279Z,11.10
2018-09-26T03:41:58.699Z,11.10
2018-09-26T03:43:02.095Z,11.10
2018-09-26T03:44:05.508Z,11.10
2018-09-26T03:45:08.924Z,11.10
2018-09-26T03:46:12.304Z,11.10
2018-09-26T03:47:15.707Z,11.10
2018-09-26T03:48:19.103Z,11.10
2018-09-26T03:49:22.516Z,11.10
2018-09-26T03:50:25.916Z,11.10
2018-09-26T03:51:29.299Z,11.10
2018-09-26T03:52:32.747Z,11.00
2018-09-26T03:53:36.296Z,11.00
2018-09-26T03:54:39.716Z,11.00
2018-09-26T03:55:43.108Z,11.00
2018-09-26T03:56:46.497Z,11.00
2018-09-26T03:57:49.924Z,11.00
2018-09-26T03:58:53.338Z,11.00
2018-09-26T03:59:56.732Z,11.00
2018-09-26T04:01:00.133Z,11.00
2018-09-26T04:02:03.561Z,11.00
2018-09-26T04:03:07.025Z,11.00
2018-09-26T04:04:10.433Z,11.00
2018-09-26T04:05:13.844Z,11.00
2018-09-26T04:06:17.248Z,11.00
2018-09-26T04:07:20.635Z,11.00
2018-09-26T04:08:24.028Z,10.90
2018-09-26T04:09:27.428Z,10.90
2018-09-26T04:10:30.836Z,10.90
2018-09-26T04:11:34.216Z,10.90
2018-09-26T04:12:37.654Z,10.90
2018-09-26T04:13:41.085Z,11.00
2018-09-26T04:14:44.485Z,11.00
2018-09-26T04:15:55.212Z,11.00
2018-09-26T04:16:58.611Z,11.00
2018-09-26T04:18:02.018Z,11.00
2018-09-26T04:19:05.436Z,11.00
2018-09-26T04:20:08.883Z,11.00
2018-09-26T04:21:12.256Z,11.00
2018-09-26T04:22:15.673Z,11.00
2018-09-26T04:23:19.107Z,11.00
2018-09-26T04:24:22.504Z,11.00
2018-09-26T04:25:25.925Z,11.00
2018-09-26T04:26:29.433Z,11.00
2018-09-26T04:27:32.822Z,11.00
2018-09-26T04:28:36.151Z,11.00
2018-09-26T04:29:39.528Z,11.00
2018-09-26T04:30:42.945Z,11.00
2018-09-26T04:31:46.369Z,11.00
2018-09-26T04:32:49.894Z,11.00
2018-09-26T04:33:53.309Z,11.00
2018-09-26T04:34:56.692Z,11.10
2018-09-26T04:36:00.108Z,11.00
2018-09-26T04:37:03.529Z,11.10
2018-09-26T04:38:07.447Z,11.10
2018-09-26T04:39:12.136Z,11.10
2018-09-26T04:40:15.588Z,11.10
2018-09-26T04:41:19.010Z,11.10
2018-09-26T04:42:22.407Z,11.00
2018-09-26T04:43:25.924Z,11.00
2018-09-26T04:44:29.219Z,11.00
2018-09-26T04:45:32.623Z,11.00
2018-09-26T04:46:36.133Z,11.00
2018-09-26T04:47:39.568Z,11.00
2018-09-26T04:48:42.951Z,11.00
2018-09-26T04:49:46.357Z,11.00
2018-09-26T04:50:49.878Z,11.00
2018-09-26T04:51:53.227Z,11.00
2018-09-26T04:52:56.623Z,11.00
2018-09-26T04:54:00.077Z,11.00
2018-09-26T04:55:03.469Z,11.00
2018-09-26T04:56:06.944Z,11.10
2018-09-26T04:57:10.336Z,11.00
2018-09-26T04:58:13.816Z,11.00
2018-09-26T04:59:17.205Z,11.10
2018-09-26T05:00:20.599Z,11.10
2018-09-26T05:01:24.240Z,11.10
2018-09-26T05:02:27.628Z,11.10
2018-09-26T05:03:31.016Z,11.00
2018-09-26T05:04:34.400Z,11.00
2018-09-26T05:05:37.792Z,11.00
2018-09-26T05:06:41.180Z,11.00
2018-09-26T05:07:44.564Z,11.00
2018-09-26T05:08:48.149Z,11.00
2018-09-26T05:09:51.602Z,11.10
2018-09-26T05:10:55.049Z,11.00
2018-09-26T05:11:58.494Z,11.10
2018-09-26T05:13:01.915Z,11.10
2018-09-26T05:14:05.792Z,11.10
2018-09-26T05:15:09.180Z,11.10
2018-09-26T05:16:12.591Z,11.10
2018-09-26T05:17:16.021Z,11.10
2018-09-26T05:18:19.432Z,11.10
2018-09-26T05:19:22.824Z,11.10
2018-09-26T05:20:26.230Z,11.10
2018-09-26T05:21:29.814Z,11.10
2018-09-26T05:22:33.241Z,11.10
2018-09-26T05:23:36.621Z,11.00
2018-09-26T05:24:40.026Z,11.10
2018-09-26T05:25:43.435Z,11.00
2018-09-26T05:26:46.849Z,11.00
2018-09-26T05:27:50.246Z,11.00
2018-09-26T05:28:53.728Z,11.00
2018-09-26T05:29:57.233Z,11.10
2018-09-26T05:31:00.656Z,11.00
2018-09-26T05:32:04.039Z,11.10
2018-09-26T05:33:07.456Z,11.00
2018-09-26T05:34:10.840Z,11.00
2018-09-26T05:35:14.271Z,11.00
2018-09-26T05:36:17.672Z,11.00
2018-09-26T05:37:21.159Z,11.00
2018-09-26T05:38:24.564Z,11.00
2018-09-26T05:39:27.963Z,11.00
2018-09-26T05:40:31.388Z,11.00
2018-09-26T05:41:34.823Z,11.00
2018-09-26T05:42:38.192Z,11.00
2018-09-26T05:43:41.584Z,11.00
2018-09-26T05:44:44.960Z,11.00
2018-09-26T05:45:48.394Z,11.00
2018-09-26T05:46:51.842Z,11.00
2018-09-26T05:47:55.239Z,11.10
2018-09-26T05:48:58.669Z,11.00
2018-09-26T05:50:02.067Z,11.00
2018-09-26T05:51:05.491Z,11.00
2018-09-26T05:52:08.885Z,11.00
2018-09-26T05:53:12.268Z,11.00
2018-09-26T05:54:15.660Z,11.00
2018-09-26T05:55:19.084Z,11.10
2018-09-26T05:56:22.463Z,11.10
2018-09-26T05:57:25.854Z,11.10
2018-09-26T05:58:29.265Z,11.10
2018-09-26T05:59:32.723Z,11.10
2018-09-26T06:00:36.129Z,11.10
2018-09-26T06:01:39.504Z,11.10
2018-09-26T06:02:42.907Z,11.10
2018-09-26T06:03:46.284Z,11.10
2018-09-26T06:04:49.673Z,11.20
2018-09-26T06:05:53.097Z,11.20
2018-09-26T06:06:56.500Z,11.20
2018-09-26T06:08:00.094Z,11.20
2018-09-26T06:09:04.924Z,11.20
2018-09-26T06:10:08.357Z,11.20
2018-09-26T06:11:11.794Z,11.20
2018-09-26T06:12:15.181Z,11.20
2018-09-26T06:13:18.565Z,11.20
2018-09-26T06:14:22.013Z,11.20
2018-09-26T06:15:25.413Z,11.20
2018-09-26T06:16:28.853Z,11.20
2018-09-26T06:17:32.244Z,11.20
2018-09-26T06:18:35.696Z,11.20
2018-09-26T06:19:39.080Z,11.20
2018-09-26T06:20:42.531Z,11.20
2018-09-26T06:21:45.948Z,11.20
2018-09-26T06:22:49.336Z,11.20
2018-09-26T06:23:52.776Z,11.30
2018-09-26T06:24:56.180Z,11.30
2018-09-26T06:25:59.619Z,11.30
2018-09-26T06:27:03.118Z,11.30
2018-09-26T06:28:06.535Z,11.30
2018-09-26T06:29:10.113Z,11.30
2018-09-26T06:30:13.495Z,11.30
2018-09-26T06:31:16.936Z,11.30
2018-09-26T06:32:20.328Z,11.30
2018-09-26T06:33:24.035Z,11.40
2018-09-26T06:34:27.428Z,11.40
2018-09-26T06:35:30.851Z,11.40
2018-09-26T06:36:34.312Z,11.40
2018-09-26T06:37:37.767Z,11.40
2018-09-26T06:38:41.156Z,11.40
2018-09-26T06:39:44.585Z,11.50
2018-09-26T06:40:47.975Z,11.50
2018-09-26T06:41:51.405Z,11.50
2018-09-26T06:42:54.817Z,11.50
2018-09-26T06:43:58.221Z,11.50
2018-09-26T06:45:01.657Z,11.50
2018-09-26T06:46:05.236Z,11.50
2018-09-26T06:47:08.650Z,11.50
2018-09-26T06:48:12.063Z,11.50
2018-09-26T06:49:15.467Z,11.60
2018-09-26T06:50:18.872Z,11.60
2018-09-26T06:51:22.256Z,11.60
2018-09-26T06:52:25.676Z,11.60
2018-09-26T06:53:29.067Z,11.70
2018-09-26T06:54:32.997Z,11.70
2018-09-26T06:55:36.430Z,11.70
2018-09-26T06:56:39.829Z,11.70
2018-09-26T06:57:43.236Z,11.70
2018-09-26T06:58:46.645Z,11.70
2018-09-26T06:59:50.044Z,11.80
2018-09-26T07:00:53.489Z,11.80
2018-09-26T07:01:56.940Z,11.80
2018-09-26T07:03:00.365Z,11.80
2018-09-26T07:04:03.824Z,11.80
2018-09-26T07:05:07.248Z,11.80
2018-09-26T07:06:10.747Z,11.90
2018-09-26T07:07:14.241Z,11.90
2018-09-26T07:08:17.659Z,11.90
2018-09-26T07:09:21.055Z,11.90
2018-09-26T07:10:24.482Z,11.90
2018-09-26T07:11:28.037Z,11.90
2018-09-26T07:12:31.440Z,12.00
2018-09-26T07:13:34.993Z,12.00
2018-09-26T07:14:38.379Z,12.00
2018-09-26T07:15:41.807Z,12.00
2018-09-26T07:16:45.223Z,12.00
2018-09-26T07:17:48.620Z,12.00
2018-09-26T07:18:52.051Z,12.00
2018-09-26T07:19:55.436Z,12.00
2018-09-26T07:20:58.831Z,12.10
2018-09-26T07:22:02.241Z,12.10
2018-09-26T07:23:05.688Z,12.10
2018-09-26T07:24:09.176Z,12.10
2018-09-26T07:25:12.568Z,12.10
2018-09-26T07:26:15.964Z,12.10
2018-09-26T07:27:19.473Z,12.10
2018-09-26T07:28:22.933Z,12.10
2018-09-26T07:29:26.336Z,12.10
2018-09-26T07:30:29.749Z,12.10
2018-09-26T07:31:33.238Z,12.10
2018-09-26T07:32:36.636Z,12.10
2018-09-26T07:33:40.054Z,12.10
2018-09-26T07:34:43.451Z,12.10
2018-09-26T07:35:46.885Z,12.10
2018-09-26T07:36:50.325Z,12.10
2018-09-26T07:37:53.884Z,12.10
2018-09-26T07:38:57.321Z,12.10
2018-09-26T07:40:00.718Z,12.20
2018-09-26T07:41:04.118Z,12.20
2018-09-26T07:42:07.588Z,12.20
2018-09-26T07:43:11.005Z,12.20
2018-09-26T07:44:14.413Z,12.20
2018-09-26T07:45:17.995Z,12.20
2018-09-26T07:46:21.392Z,12.20
2018-09-26T07:47:24.792Z,12.20
2018-09-26T07:48:28.183Z,12.20
2018-09-26T07:49:31.594Z,12.30
2018-09-26T07:50:34.988Z,12.30
2018-09-26T07:51:38.439Z,12.30
2018-09-26T07:52:41.858Z,12.30
2018-09-26T07:53:45.260Z,12.40
2018-09-26T07:54:48.664Z,12.40
2018-09-26T07:55:52.094Z,12.40
2018-09-26T07:56:55.527Z,12.40
2018-09-26T07:57:58.933Z,12.40
2018-09-26T07:59:02.360Z,12.40
2018-09-26T08:00:06.903Z,12.40
2018-09-26T08:01:10.298Z,12.40
2018-09-26T08:02:13.676Z,12.40
2018-09-26T08:03:17.089Z,12.40
2018-09-26T08:04:20.493Z,12.40
2018-09-26T08:05:23.917Z,12.40
2018-09-26T08:06:27.322Z,12.40
2018-09-26T08:07:30.720Z,12.50
2018-09-26T08:08:34.132Z,12.50
2018-09-26T08:09:37.520Z,12.50
2018-09-26T08:10:40.907Z,12.50
2018-09-26T08:11:44.340Z,12.50
2018-09-26T08:12:47.709Z,12.60
2018-09-26T08:13:51.111Z,12.60
2018-09-26T08:14:54.556Z,12.50
2018-09-26T08:15:57.939Z,12.60
2018-09-26T08:17:01.369Z,12.50
2018-09-26T08:18:04.800Z,12.60
2018-09-26T08:19:09.612Z,12.60
2018-09-26T08:20:13.130Z,12.60
2018-09-26T08:21:16.608Z,12.60
2018-09-26T08:22:19.996Z,12.60
2018-09-26T08:23:23.396Z,12.60
2018-09-26T08:24:26.801Z,12.60
2018-09-26T08:25:30.184Z,12.60
2018-09-26T08:26:33.655Z,12.60
2018-09-26T08:27:37.104Z,12.60
2018-09-26T08:28:40.533Z,12.60
2018-09-26T08:29:44.005Z,12.60
2018-09-26T08:30:47.324Z,12.60
2018-09-26T08:31:50.741Z,12.60
2018-09-26T08:32:54.416Z,12.60
2018-09-26T08:33:57.814Z,12.60
2018-09-26T08:35:01.205Z,12.60
2018-09-26T08:36:04.600Z,12.60
2018-09-26T08:37:08.013Z,12.60
2018-09-26T08:38:11.517Z,12.70
2018-09-26T08:39:14.899Z,12.70
2018-09-26T08:40:18.287Z,12.70
2018-09-26T08:41:21.664Z,12.70
2018-09-26T08:42:25.097Z,12.70
2018-09-26T08:43:28.512Z,12.70
2018-09-26T08:44:31.972Z,12.70
2018-09-26T08:45:35.371Z,12.70
2018-09-26T08:46:39.103Z,12.70
2018-09-26T08:47:42.579Z,12.70
2018-09-26T08:48:46.004Z,12.70
2018-09-26T08:49:49.448Z,12.70
2018-09-26T08:50:52.837Z,12.70
2018-09-26T08:51:56.245Z,12.70
2018-09-26T08:52:59.668Z,12.70
2018-09-26T08:54:03.085Z,12.80
2018-09-26T08:55:06.473Z,12.70
2018-09-26T08:56:09.888Z,12.80
2018-09-26T08:57:13.297Z,12.80
2018-09-26T08:58:16.684Z,12.80
2018-09-26T08:59:20.110Z,12.80
2018-09-26T09:00:28.897Z,12.80
2018-09-26T09:01:37.623Z,12.80
2018-09-26T09:02:41.021Z,12.80
2018-09-26T09:03:44.449Z,12.90
2018-09-26T09:04:47.936Z,12.90
2018-09-26T09:05:52.169Z,12.90
2018-09-26T09:06:55.580Z,12.90
2018-09-26T09:07:59.344Z,12.90
2018-09-26T09:09:02.873Z,12.90
2018-09-26T09:10:06.260Z,12.90
2018-09-26T09:11:10.514Z,12.90
2018-09-26T09:12:14.017Z,13.00
2018-09-26T09:13:17.438Z,13.00
2018-09-26T09:14:20.883Z,13.00
2018-09-26T09:15:24.987Z,13.00
2018-09-26T09:16:28.482Z,13.00
2018-09-26T09:17:31.910Z,13.10
2018-09-26T09:18:35.356Z,13.10
2018-09-26T09:19:38.887Z,13.10
2018-09-26T09:20:42.277Z,13.10
2018-09-26T09:21:45.706Z,13.20
2018-09-26T09:22:49.131Z,13.20
2018-09-26T09:23:52.527Z,13.30
2018-09-26T09:24:55.939Z,13.30
2018-09-26T09:25:59.335Z,13.30
2018-09-26T09:27:02.748Z,13.30
2018-09-26T09:28:07.244Z,13.40
2018-09-26T09:29:10.746Z,13.40
2018-09-26T09:30:14.187Z,13.40
2018-09-26T09:31:17.676Z,13.50
2018-09-26T09:32:21.097Z,13.50
2018-09-26T09:33:24.484Z,13.50
2018-09-26T09:34:27.932Z,13.60
2018-09-26T09:35:31.352Z,13.60
2018-09-26T09:36:34.803Z,13.60
2018-09-26T09:37:38.180Z,13.70
2018-09-26T09:38:41.844Z,13.70
2018-09-26T09:39:45.230Z,13.70
2018-09-26T09:40:48.636Z,13.80
2018-09-26T09:41:52.100Z,13.80
2018-09-26T09:42:55.532Z,13.80
2018-09-26T09:43:58.978Z,13.90
2018-09-26T09:45:02.354Z,13.90
2018-09-26T09:46:06.282Z,13.90
2018-09-26T09:47:09.676Z,14.00
2018-09-26T09:48:13.236Z,14.00
2018-09-26T09:49:16.652Z,14.00
2018-09-26T09:50:20.204Z,14.00
2018-09-26T09:51:23.574Z,14.00
2018-09-26T09:52:26.967Z,14.10
2018-09-26T09:53:30.369Z,14.10
2018-09-26T09:54:33.776Z,14.10
2018-09-26T09:55:37.180Z,14.10
2018-09-26T09:56:40.606Z,14.10
2018-09-26T09:57:44.124Z,14.10
2018-09-26T09:58:47.598Z,14.10
2018-09-26T09:59:51.308Z,14.10
2018-09-26T10:01:00.028Z,14.10
2018-09-26T10:02:03.421Z,14.10
2018-09-26T10:03:06.988Z,14.00
2018-09-26T10:04:10.343Z,14.00
2018-09-26T10:05:13.921Z,14.00
2018-09-26T10:06:17.335Z,14.00
2018-09-26T10:07:20.761Z,14.00
2018-09-26T10:08:24.259Z,14.00
2018-09-26T10:09:27.582Z,14.00
2018-09-26T10:10:31.000Z,13.90
2018-09-26T10:11:34.384Z,13.90
2018-09-26T10:12:37.771Z,13.90
2018-09-26T10:13:41.236Z,13.90
2018-09-26T10:14:44.945Z,13.90
2018-09-26T10:15:48.356Z,13.90
2018-09-26T10:16:51.736Z,13.90
2018-09-26T10:17:55.155Z,13.90
2018-09-26T10:18:58.576Z,13.90
2018-09-26T10:20:01.969Z,13.90
2018-09-26T10:21:05.551Z,13.90
2018-09-26T10:22:09.130Z,13.90
2018-09-26T10:23:12.669Z,13.90
2018-09-26T10:24:16.059Z,13.90
2018-09-26T10:25:19.460Z,13.90
2018-09-26T10:26:22.931Z,13.90
2018-09-26T10:27:26.325Z,13.90
2018-09-26T10:28:29.712Z,13.90
2018-09-26T10:29:33.101Z,13.90
2018-09-26T10:30:36.488Z,14.00
2018-09-26T10:31:39.923Z,14.00
2018-09-26T10:32:43.348Z,14.00
2018-09-26T10:33:46.748Z,14.00
2018-09-26T10:34:50.214Z,14.00
2018-09-26T10:35:53.595Z,14.00
2018-09-26T10:36:57.025Z,14.10
2018-09-26T10:38:00.519Z,14.10
2018-09-26T10:39:05.140Z,14.10
2018-09-26T10:40:08.527Z,14.10
2018-09-26T10:41:11.964Z,14.10
2018-09-26T10:42:15.355Z,14.10
2018-09-26T10:43:18.768Z,14.20
2018-09-26T10:44:22.206Z,14.20
2018-09-26T10:45:25.592Z,14.10
2018-09-26T10:46:29.353Z,14.20
2018-09-26T10:47:32.750Z,14.20
2018-09-26T10:48:36.157Z,14.20
2018-09-26T10:49:39.607Z,14.20
2018-09-26T10:50:42.987Z,14.20
2018-09-26T10:51:46.373Z,14.20
2018-09-26T10:52:49.760Z,14.20
2018-09-26T10:53:53.310Z,14.20
2018-09-26T10:54:56.709Z,14.20
2018-09-26T10:56:00.237Z,14.20
2018-09-26T10:57:03.634Z,14.30
2018-09-26T10:58:07.029Z,14.30
2018-09-26T10:59:10.724Z,14.30
2018-09-26T11:00:14.116Z,14.30
2018-09-26T11:01:17.524Z,14.20
2018-09-26T11:02:20.928Z,14.30
2018-09-26T11:03:24.347Z,14.30
2018-09-26T11:04:27.835Z,14.30
2018-09-26T11:05:31.240Z,14.30
2018-09-26T11:06:34.637Z,14.30
2018-09-26T11:07:38.024Z,14.30
2018-09-26T11:08:41.423Z,14.30
2018-09-26T11:09:44.833Z,14.30
2018-09-26T11:10:48.253Z,14.30
2018-09-26T11:11:51.644Z,14.20
2018-09-26T11:12:55.233Z,14.20
2018-09-26T11:13:58.616Z,14.30
2018-09-26T11:15:02.027Z,14.30
2018-09-26T11:16:05.453Z,14.30
2018-09-26T11:17:08.839Z,14.30
2018-09-26T11:18:12.239Z,14.30
2018-09-26T11:19:15.648Z,14.30
2018-09-26T11:20:19.185Z,14.30
2018-09-26T11:21:22.561Z,14.20
2018-09-26T11:22:26.287Z,14.20
2018-09-26T11:23:29.648Z,14.30
2018-09-26T11:24:33.037Z,14.30
2018-09-26T11:25:36.495Z,14.30
2018-09-26T11:26:40.097Z,14.30
2018-09-26T11:27:43.436Z,14.30
2018-09-26T11:28:46.868Z,14.30
2018-09-26T11:29:50.259Z,14.30
2018-09-26T11:30:53.673Z,14.30
2018-09-26T11:31:57.101Z,14.30
2018-09-26T11:33:00.541Z,14.40
2018-09-26T11:34:03.928Z,14.40
2018-09-26T11:35:07.357Z,14.40
2018-09-26T11:36:10.747Z,14.40
2018-09-26T11:37:14.180Z,14.40
2018-09-26T11:38:17.623Z,14.40
2018-09-26T11:39:21.099Z,14.50
2018-09-26T11:40:24.533Z,14.40
2018-09-26T11:41:27.990Z,14.40
2018-09-26T11:42:31.990Z,14.40
2018-09-26T11:43:35.540Z,14.40
2018-09-26T11:44:39.012Z,14.40
2018-09-26T11:45:42.548Z,14.40
2018-09-26T11:46:45.964Z,14.50
2018-09-26T11:47:49.369Z,14.50
2018-09-26T11:48:52.764Z,14.50
2018-09-26T11:49:56.197Z,14.50
2018-09-26T11:50:59.732Z,14.50
2018-09-26T11:52:03.272Z,14.50
2018-09-26T11:53:06.722Z,14.50
2018-09-26T11:54:10.117Z,14.50
2018-09-26T11:55:13.501Z,14.50
2018-09-26T11:56:16.917Z,14.50
2018-09-26T11:57:20.349Z,14.50
2018-09-26T11:58:23.818Z,14.50
2018-09-26T11:59:27.153Z,14.50
2018-09-26T12:00:30.552Z,14.60
2018-09-26T12:01:33.993Z,14.60
2018-09-26T12:02:37.447Z,14.60
2018-09-26T12:03:40.796Z,14.60
2018-09-26T12:04:44.192Z,14.60
2018-09-26T12:05:47.689Z,14.60
2018-09-26T12:06:51.303Z,14.70
2018-09-26T12:07:54.732Z,14.70
2018-09-26T12:08:58.127Z,14.70
2018-09-26T12:10:01.529Z,14.80
2018-09-26T12:11:04.921Z,14.80
2018-09-26T12:12:08.424Z,14.80
2018-09-26T12:13:11.784Z,14.80
2018-09-26T12:14:15.184Z,14.90
2018-09-26T12:15:18.577Z,14.90
2018-09-26T12:16:22.039Z,14.90
2018-09-26T12:17:25.421Z,14.90
2018-09-26T12:18:28.836Z,14.90
2018-09-26T12:19:32.230Z,14.90
2018-09-26T12:20:35.629Z,14.90
2018-09-26T12:21:39.045Z,14.90
2018-09-26T12:22:42.476Z,14.90
2018-09-26T12:23:45.859Z,14.90
2018-09-26T12:24:49.264Z,14.90
2018-09-26T12:25:52.680Z,15.00
2018-09-26T12:26:56.079Z,15.00
2018-09-26T12:27:59.524Z,15.00
2018-09-26T12:29:02.883Z,15.00
2018-09-26T12:30:07.427Z,15.10
2018-09-26T12:31:10.800Z,15.10
2018-09-26T12:32:14.229Z,15.10
2018-09-26T12:33:17.654Z,15.10
2018-09-26T12:34:21.065Z,15.10
2018-09-26T12:35:24.485Z,15.10
2018-09-26T12:36:27.979Z,15.10
2018-09-26T12:37:31.328Z,15.20
2018-09-26T12:38:34.777Z,15.20
2018-09-26T12:39:38.167Z,15.20
2018-09-26T12:40:41.560Z,15.20
2018-09-26T12:41:44.953Z,15.20
2018-09-26T12:42:48.393Z,15.20
2018-09-26T12:43:51.777Z,15.20
2018-09-26T12:44:55.197Z,15.20
2018-09-26T12:45:58.594Z,15.20
2018-09-26T12:47:02.009Z,15.20
2018-09-26T12:48:05.706Z,15.30
2018-09-26T12:49:09.095Z,15.30
2018-09-26T12:50:12.496Z,15.30
2018-09-26T12:51:15.882Z,15.30
2018-09-26T12:52:19.328Z,15.40
2018-09-26T12:53:22.770Z,15.40
2018-09-26T12:54:26.188Z,15.40
2018-09-26T12:55:29.919Z,15.40
2018-09-26T12:56:33.349Z,15.40
2018-09-26T12:57:37.120Z,15.40
2018-09-26T12:58:40.505Z,15.50
2018-09-26T12:59:43.920Z,15.50
2018-09-26T13:00:47.379Z,15.50
2018-09-26T13:01:50.736Z,15.50
2018-09-26T13:02:54.132Z,15.60
2018-09-26T13:03:57.549Z,15.60
2018-09-26T13:05:01.009Z,15.60
2018-09-26T13:06:04.475Z,15.60
2018-09-26T13:07:07.884Z,15.60
2018-09-26T13:08:11.294Z,15.70
2018-09-26T13:09:14.713Z,15.70
2018-09-26T13:10:18.246Z,15.70
2018-09-26T13:11:21.583Z,15.80
2018-09-26T13:12:25.126Z,15.80
2018-09-26T13:13:28.500Z,15.90
2018-09-26T13:14:31.985Z,15.90
2018-09-26T13:15:35.402Z,15.90
2018-09-26T13:16:38.839Z,16.00
2018-09-26T13:17:42.234Z,16.00
2018-09-26T13:18:45.694Z,16.00
2018-09-26T13:19:49.067Z,16.10
2018-09-26T13:20:52.497Z,16.10
2018-09-26T13:21:55.950Z,16.20
2018-09-26T13:22:59.365Z,16.20
2018-09-26T13:24:02.806Z,16.30
2018-09-26T13:25:06.209Z,16.30
2018-09-26T13:26:09.649Z,16.30
2018-09-26T13:27:13.071Z,16.40
2018-09-26T13:28:16.535Z,16.40
2018-09-26T13:29:19.912Z,16.40
2018-09-26T13:30:23.389Z,16.50
2018-09-26T13:31:26.724Z,16.50
2018-09-26T13:32:30.473Z,16.60
2018-09-26T13:33:33.918Z,16.60
2018-09-26T13:34:37.332Z,16.60
2018-09-26T13:35:40.716Z,16.70
2018-09-26T13:36:44.120Z,16.70
2018-09-26T13:37:47.517Z,16.70